createdAt,value
2022-08-03T00:01:51.048Z,2.53
2022-08-03T00:04:17.635Z,2.87
2022-08-03T00:06:44.169Z,2.93
2022-08-03T00:09:11.066Z,3.07
2022-08-03T00:11:38.097Z,3.73
2022-08-03T00:14:05.710Z,4.20
2022-08-03T00:16:32.575Z,4.23
2022-08-03T00:19:00.757Z,4.30
2022-08-03T00:21:27.699Z,5.00
2022-08-03T00:23:54.225Z,4.47
2022-08-03T00:26:21.076Z,4.30
2022-08-03T00:28:47.809Z,4.43
2022-08-03T00:31:14.303Z,4.13
2022-08-03T00:33:59.187Z,4.10
2022-08-03T00:36:27.777Z,4.50
2022-08-03T00:38:54.505Z,4.00
2022-08-03T00:41:21.056Z,3.37
2022-08-03T00:43:47.871Z,3.67
2022-08-03T00:46:19.069Z,3.30
2022-08-03T00:48:48.967Z,3.43
2022-08-03T00:51:15.544Z,4.03
2022-08-03T00:53:42.041Z,3.20
2022-08-03T00:56:08.552Z,3.77
2022-08-03T00:58:35.066Z,3.73
2022-08-03T01:01:01.653Z,3.03
2022-08-03T01:03:28.212Z,4.03
2022-08-03T01:06:06.428Z,3.10
2022-08-03T01:08:51.409Z,2.50
2022-08-03T01:11:22.866Z,3.33
2022-08-03T01:14:03.626Z,3.20
2022-08-03T01:17:00.063Z,2.40
2022-08-03T01:19:29.508Z,3.17
2022-08-03T01:22:16.455Z,2.90
2022-08-03T01:25:02.339Z,2.40
2022-08-03T01:27:38.303Z,2.37
2022-08-03T01:30:08.968Z,2.13
2022-08-03T01:32:58.206Z,1.80
2022-08-03T01:35:29.370Z,2.30
2022-08-03T01:38:02.729Z,3.20
2022-08-03T01:40:29.860Z,2.70
2022-08-03T01:42:57.848Z,3.03
2022-08-03T01:45:24.623Z,3.77
2022-08-03T01:47:51.762Z,4.70
2022-08-03T01:50:22.448Z,4.13
2022-08-03T01:52:49.286Z,3.70
2022-08-03T01:55:17.622Z,3.50
2022-08-03T01:58:06.268Z,3.10
2022-08-03T02:00:33.953Z,3.00
2022-08-03T02:03:00.791Z,2.90
2022-08-03T02:05:27.957Z,2.37
2022-08-03T02:07:54.960Z,2.83
2022-08-03T02:10:34.296Z,2.67
2022-08-03T02:13:03.136Z,2.90
2022-08-03T02:15:30.176Z,2.10
2022-08-03T02:17:57.645Z,2.73
2022-08-03T02:20:25.123Z,2.30
2022-08-03T02:22:51.673Z,2.30
2022-08-03T02:25:18.178Z,2.57
2022-08-03T02:27:58.638Z,2.17
2022-08-03T02:30:32.727Z,3.00
2022-08-03T02:32:59.441Z,3.27
2022-08-03T02:35:26.655Z,2.80
2022-08-03T02:37:56.076Z,3.23
2022-08-03T02:40:23.388Z,3.47
2022-08-03T02:42:51.994Z,3.63
2022-08-03T02:45:20.047Z,3.93
2022-08-03T02:47:54.082Z,3.85
2022-08-03T02:50:23.130Z,3.40
2022-08-03T02:52:49.982Z,3.73
2022-08-03T02:55:17.460Z,3.17
2022-08-03T02:57:44.892Z,3.97
2022-08-03T03:00:12.723Z,3.47
2022-08-03T03:02:46.273Z,3.77
2022-08-03T03:05:51.792Z,3.67
2022-08-03T03:07:59.722Z,2.83
2022-08-03T03:10:27.964Z,3.00
2022-08-03T03:12:58.202Z,3.70
2022-08-03T03:15:25.869Z,3.00
2022-08-03T03:17:53.666Z,3.13
2022-08-03T03:20:29.564Z,2.97
2022-08-03T03:22:58.492Z,4.07
2022-08-03T03:25:25.088Z,4.10
2022-08-03T03:27:51.812Z,4.33
2022-08-03T03:30:18.616Z,4.07
2022-08-03T03:32:45.115Z,3.43
2022-08-03T03:35:11.808Z,3.77
2022-08-03T03:37:38.363Z,3.10
2022-08-03T03:40:05.196Z,3.30
2022-08-03T03:42:31.988Z,3.10
2022-08-03T03:44:58.939Z,2.63
2022-08-03T03:47:32.125Z,2.20
2022-08-03T03:49:59.647Z,1.87
2022-08-03T03:52:26.174Z,2.63
2022-08-03T03:54:55.374Z,1.50
2022-08-03T03:57:24.055Z,1.70
2022-08-03T03:59:50.597Z,1.80
2022-08-03T04:02:17.296Z,1.70
2022-08-03T04:05:02.648Z,1.93
2022-08-03T04:07:50.520Z,2.10
2022-08-03T04:10:39.338Z,2.00
2022-08-03T04:13:10.010Z,2.00
2022-08-03T04:15:37.795Z,2.00
2022-08-03T04:18:04.931Z,2.07
2022-08-03T04:20:32.720Z,2.20
2022-08-03T04:23:00.313Z,2.30
2022-08-03T04:25:28.957Z,2.23
2022-08-03T04:28:28.320Z,2.20
2022-08-03T04:30:48.275Z,2.17
2022-08-03T04:33:16.377Z,2.33
2022-08-03T04:35:58.658Z,2.28
2022-08-03T04:38:30.577Z,2.20
2022-08-03T04:40:57.413Z,2.58
2022-08-03T04:43:25.307Z,2.38
2022-08-03T04:45:52.367Z,2.50
2022-08-03T04:48:20.162Z,1.75
2022-08-03T04:50:46.882Z,1.90
2022-08-03T04:53:13.532Z,1.90
2022-08-03T04:55:40.001Z,2.15
2022-08-03T04:58:06.528Z,2.08
2022-08-03T05:00:33.173Z,2.00
2022-08-03T05:02:59.660Z,1.95
2022-08-03T05:05:26.184Z,1.85
2022-08-03T05:08:12.665Z,1.77
2022-08-03T05:10:39.561Z,1.90
2022-08-03T05:13:06.073Z,1.95
2022-08-03T05:15:32.569Z,1.77
2022-08-03T05:17:59.061Z,2.05
2022-08-03T05:20:25.973Z,2.53
2022-08-03T05:22:52.501Z,2.17
2022-08-03T05:25:20.622Z,1.88
2022-08-03T05:27:57.137Z,1.89
2022-08-03T05:30:32.342Z,1.80
2022-08-03T05:33:01.508Z,1.65
2022-08-03T05:36:01.149Z,1.90
2022-08-03T05:38:15.475Z,1.55
2022-08-03T05:40:57.672Z,1.85
2022-08-03T05:43:41.372Z,1.90
2022-08-03T05:46:12.996Z,2.03
2022-08-03T05:48:40.046Z,2.17
2022-08-03T05:51:07.848Z,1.80
2022-08-03T05:53:34.777Z,2.00
2022-08-03T05:56:14.697Z,2.17
2022-08-03T05:58:48.544Z,1.65
2022-08-03T06:01:16.725Z,2.35
2022-08-03T06:03:43.706Z,1.98
2022-08-03T06:06:11.593Z,1.67
2022-08-03T06:08:38.667Z,1.45
2022-08-03T06:11:05.184Z,1.77
2022-08-03T06:13:32.318Z,1.60
2022-08-03T06:15:58.846Z,2.60
2022-08-03T06:18:25.359Z,1.90
2022-08-03T06:20:52.504Z,1.60
2022-08-03T06:23:19.343Z,1.52
2022-08-03T06:25:46.747Z,1.52
2022-08-03T06:28:51.857Z,1.30
2022-08-03T06:31:06.543Z,1.92
2022-08-03T06:34:31.577Z,1.23
2022-08-03T06:36:20.081Z,1.70
2022-08-03T06:38:46.805Z,1.40
2022-08-03T06:41:13.305Z,1.20
2022-08-03T06:44:03.392Z,1.60
2022-08-03T06:46:26.235Z,1.20
2022-08-03T06:48:52.989Z,1.75
2022-08-03T06:51:19.625Z,1.27
2022-08-03T06:53:46.132Z,1.35
2022-08-03T06:56:12.634Z,1.50
2022-08-03T06:58:39.115Z,1.35
2022-08-03T07:01:05.699Z,1.13
2022-08-03T07:03:32.213Z,1.35
2022-08-03T07:05:59.621Z,1.58
2022-08-03T07:08:34.169Z,1.63
2022-08-03T07:11:01.073Z,1.42
2022-08-03T07:13:27.580Z,1.73
2022-08-03T07:15:56.382Z,1.38
2022-08-03T07:18:29.259Z,1.55
2022-08-03T07:20:57.256Z,1.35
2022-08-03T07:23:23.837Z,1.90
2022-08-03T07:25:51.020Z,1.48
2022-08-03T07:28:17.913Z,1.73
2022-08-03T07:30:44.404Z,1.40
2022-08-03T07:33:11.110Z,1.35
2022-08-03T07:35:37.713Z,1.60
2022-08-03T07:38:04.206Z,1.40
2022-08-03T07:40:31.731Z,1.23
2022-08-03T07:42:59.554Z,1.33
2022-08-03T07:45:26.859Z,1.80
2022-08-03T07:47:54.235Z,1.10
2022-08-03T07:50:21.225Z,1.60
2022-08-03T07:52:51.736Z,1.40
2022-08-03T07:55:19.859Z,1.30
2022-08-03T07:57:46.994Z,1.35
2022-08-03T08:00:15.624Z,1.38
2022-08-03T08:02:42.208Z,1.50
2022-08-03T08:05:09.186Z,2.00
2022-08-03T08:07:35.686Z,1.60
2022-08-03T08:10:02.255Z,1.65
2022-08-03T08:12:28.768Z,1.60
2022-08-03T08:14:55.242Z,1.05
2022-08-03T08:17:21.814Z,1.50
2022-08-03T08:19:51.625Z,1.35
2022-08-03T08:22:26.575Z,1.42
2022-08-03T08:24:56.863Z,1.38
2022-08-03T08:27:23.553Z,1.30
2022-08-03T08:29:54.561Z,1.70
2022-08-03T08:32:23.113Z,1.52
2022-08-03T08:34:49.748Z,1.38
2022-08-03T08:37:16.269Z,1.48
2022-08-03T08:39:42.772Z,1.40
2022-08-03T08:42:10.010Z,1.50
2022-08-03T08:44:36.476Z,1.30
2022-08-03T08:47:04.237Z,1.20
2022-08-03T08:49:32.922Z,1.40
2022-08-03T08:52:01.406Z,1.50
2022-08-03T08:54:29.775Z,1.45
2022-08-03T08:56:57.190Z,1.65
2022-08-03T08:59:24.248Z,1.40
2022-08-03T09:01:50.741Z,1.48
2022-08-03T09:04:17.538Z,1.46
2022-08-03T09:06:58.702Z,1.38
2022-08-03T09:10:13.075Z,1.60
2022-08-03T09:12:39.071Z,1.38
2022-08-03T09:15:24.529Z,1.60
2022-08-03T09:17:52.031Z,1.65
2022-08-03T09:20:19.266Z,1.52
2022-08-03T09:22:56.677Z,1.25
2022-08-03T09:25:29.056Z,1.35
2022-08-03T09:27:55.686Z,1.85
2022-08-03T09:30:34.686Z,1.45
2022-08-03T09:33:05.829Z,1.50
2022-08-03T09:35:53.257Z,1.63
2022-08-03T09:38:24.142Z,1.75
2022-08-03T09:40:52.161Z,1.70
2022-08-03T09:43:20.536Z,1.70
2022-08-03T09:45:47.006Z,1.65
2022-08-03T09:48:22.597Z,1.42
2022-08-03T09:50:57.009Z,1.60
2022-08-03T09:53:57.106Z,1.55
2022-08-03T09:56:38.035Z,1.27
2022-08-03T09:59:04.757Z,1.63
2022-08-03T10:01:35.463Z,1.60
2022-08-03T10:04:04.505Z,1.52
2022-08-03T10:06:31.630Z,1.70
2022-08-03T10:09:07.462Z,1.40
2022-08-03T10:11:40.400Z,1.40
2022-08-03T10:14:09.392Z,1.50
2022-08-03T10:16:39.626Z,1.52
2022-08-03T10:19:07.672Z,1.55
2022-08-03T10:21:35.454Z,1.20
2022-08-03T10:24:06.344Z,1.30
2022-08-03T10:26:34.149Z,1.33
2022-08-03T10:29:03.071Z,1.58
2022-08-03T10:31:35.933Z,1.40
2022-08-03T10:34:24.283Z,1.50
2022-08-03T10:36:53.689Z,2.15
2022-08-03T10:39:22.137Z,1.40
2022-08-03T10:41:48.916Z,1.30
2022-08-03T10:44:19.033Z,1.17
2022-08-03T10:46:46.249Z,1.36
2022-08-03T10:49:13.888Z,1.40
2022-08-03T10:51:41.322Z,1.38
2022-08-03T10:54:11.823Z,1.20
2022-08-03T10:56:57.881Z,1.70
2022-08-03T10:59:43.565Z,1.55
2022-08-03T11:02:10.052Z,1.52
2022-08-03T11:04:36.527Z,1.27
2022-08-03T11:07:24.931Z,1.67
2022-08-03T11:09:52.324Z,1.42
2022-08-03T11:12:30.517Z,1.33
2022-08-03T11:15:02.299Z,1.30
2022-08-03T11:17:29.050Z,1.40
2022-08-03T11:19:57.265Z,1.23
2022-08-03T11:22:25.120Z,1.38
2022-08-03T11:24:54.051Z,1.40
2022-08-03T11:27:20.915Z,1.40
2022-08-03T11:29:58.860Z,1.33
2022-08-03T11:32:37.518Z,1.60
2022-08-03T11:35:08.798Z,1.40
2022-08-03T11:37:35.777Z,1.50
2022-08-03T11:40:03.025Z,1.10
2022-08-03T11:42:29.686Z,1.23
2022-08-03T11:44:56.865Z,1.23
2022-08-03T11:47:25.698Z,1.55
2022-08-03T11:49:54.013Z,1.60
2022-08-03T11:52:27.042Z,1.15
2022-08-03T11:54:57.213Z,1.30
2022-08-03T11:59:01.177Z,1.48
2022-08-03T12:00:20.757Z,1.10
2022-08-03T12:02:56.953Z,1.27
2022-08-03T12:05:51.289Z,1.20
2022-08-03T12:08:27.738Z,1.20
2022-08-03T12:10:55.357Z,1.33
2022-08-03T12:13:56.797Z,1.17
2022-08-03T12:16:09.848Z,1.20
2022-08-03T12:18:36.620Z,1.27
2022-08-03T12:21:04.724Z,1.30
2022-08-03T12:23:34.874Z,1.20
2022-08-03T12:26:05.721Z,1.30
2022-08-03T12:28:36.895Z,1.50
2022-08-03T12:31:09.581Z,1.38
2022-08-03T12:33:55.062Z,1.42
2022-08-03T12:36:21.609Z,1.27
2022-08-03T12:38:54.920Z,1.30
2022-08-03T12:41:27.210Z,1.35
2022-08-03T12:43:55.114Z,1.48
2022-08-03T12:46:21.670Z,1.25
2022-08-03T12:49:07.027Z,1.23
2022-08-03T12:51:34.967Z,1.60
2022-08-03T12:54:01.879Z,1.20
2022-08-03T12:56:28.436Z,1.20
2022-08-03T12:58:55.097Z,1.38
2022-08-03T13:01:24.571Z,1.35
2022-08-03T13:03:53.621Z,1.20
2022-08-03T13:06:22.131Z,1.00
2022-08-03T13:08:49.424Z,1.23
2022-08-03T13:11:23.668Z,1.40
2022-08-03T13:14:10.571Z,1.20
2022-08-03T13:16:46.032Z,1.33
2022-08-03T13:19:15.876Z,1.60
2022-08-03T13:22:03.746Z,1.23
2022-08-03T13:24:30.443Z,1.35
2022-08-03T13:26:57.990Z,1.38
2022-08-03T13:29:24.446Z,1.17
2022-08-03T13:31:51.538Z,1.27
2022-08-03T13:34:22.909Z,1.30
2022-08-03T13:37:08.568Z,1.27
2022-08-03T13:39:58.024Z,1.48
2022-08-03T13:42:22.714Z,1.10
2022-08-03T13:44:49.225Z,1.20
2022-08-03T13:47:16.281Z,1.35
2022-08-03T13:49:59.744Z,1.40
2022-08-03T13:52:28.921Z,1.50
2022-08-03T13:54:55.424Z,1.80
2022-08-03T13:58:03.129Z,1.63
2022-08-03T14:00:08.718Z,1.70
2022-08-03T14:02:35.394Z,1.40
2022-08-03T14:05:01.928Z,1.65
2022-08-03T14:07:28.400Z,1.42
2022-08-03T14:09:54.881Z,1.30
2022-08-03T14:12:21.394Z,1.60
2022-08-03T14:14:47.890Z,1.80
2022-08-03T14:17:16.303Z,1.42
2022-08-03T14:19:53.343Z,1.23
2022-08-03T14:22:20.861Z,1.80
2022-08-03T14:24:47.415Z,1.52
2022-08-03T14:27:13.942Z,1.52
2022-08-03T14:29:40.427Z,1.25
2022-08-03T14:32:10.174Z,1.48
2022-08-03T14:34:38.808Z,1.30
2022-08-03T14:37:05.326Z,1.42
2022-08-03T14:39:58.255Z,1.45
2022-08-03T14:42:18.362Z,1.13
2022-08-03T14:44:44.860Z,1.20
2022-08-03T14:47:11.382Z,1.70
2022-08-03T14:50:37.033Z,1.38
2022-08-03T14:52:24.569Z,1.23
2022-08-03T14:54:51.116Z,1.20
2022-08-03T14:57:17.845Z,1.40
2022-08-03T14:59:56.127Z,1.30
2022-08-03T15:02:24.346Z,1.35
2022-08-03T15:04:51.223Z,1.35
2022-08-03T15:07:18.018Z,1.50
2022-08-03T15:09:44.785Z,1.25
2022-08-03T15:12:11.247Z,1.15
2022-08-03T15:14:37.998Z,1.40
2022-08-03T15:17:05.269Z,1.35
2022-08-03T15:20:01.407Z,1.40
2022-08-03T15:22:20.750Z,1.80
2022-08-03T15:24:52.175Z,1.30
2022-08-03T15:27:19.060Z,1.38
2022-08-03T15:30:06.900Z,1.20
2022-08-03T15:32:35.018Z,1.17
2022-08-03T15:35:01.741Z,1.50
2022-08-03T15:37:28.494Z,1.40
2022-08-03T15:39:58.967Z,1.63
2022-08-03T15:42:27.529Z,1.48
2022-08-03T15:44:54.490Z,1.50
2022-08-03T15:47:21.548Z,1.42
2022-08-03T15:49:48.235Z,1.45
2022-08-03T15:52:14.720Z,1.73
2022-08-03T15:54:41.230Z,1.88
2022-08-03T15:57:07.855Z,1.75
2022-08-03T15:59:34.369Z,1.95
2022-08-03T16:02:00.949Z,2.03
2022-08-03T16:04:27.533Z,2.00
2022-08-03T16:06:54.150Z,1.33
2022-08-03T16:09:23.742Z,1.77
2022-08-03T16:12:15.495Z,1.80
2022-08-03T16:14:52.538Z,1.60
2022-08-03T16:17:19.996Z,1.70
2022-08-03T16:19:46.753Z,1.70
2022-08-03T16:22:13.391Z,1.98
2022-08-03T16:24:41.145Z,2.17
2022-08-03T16:27:17.296Z,2.45
2022-08-03T16:29:54.230Z,1.63
2022-08-03T16:32:20.758Z,1.80
2022-08-03T16:34:47.881Z,1.70
2022-08-03T16:37:37.048Z,2.13
2022-08-03T16:40:01.304Z,1.73
2022-08-03T16:42:27.878Z,1.90
2022-08-03T16:44:54.378Z,1.65
2022-08-03T16:47:21.998Z,2.00
2022-08-03T16:49:54.188Z,1.92
2022-08-03T16:52:24.122Z,1.67
2022-08-03T16:54:53.022Z,1.30
2022-08-03T16:57:59.384Z,1.88
2022-08-03T17:00:11.496Z,1.40
2022-08-03T17:02:38.336Z,1.48
2022-08-03T17:05:05.050Z,1.50
2022-08-03T17:07:31.552Z,1.30
2022-08-03T17:09:58.079Z,1.67
2022-08-03T17:12:27.254Z,2.00
2022-08-03T17:14:54.139Z,1.30
2022-08-03T17:17:47.525Z,1.42
2022-08-03T17:20:20.272Z,1.48
2022-08-03T17:23:00.226Z,1.70
2022-08-03T17:25:39.784Z,1.38
2022-08-03T17:28:51.370Z,1.63
2022-08-03T17:31:23.155Z,1.20
2022-08-03T17:33:57.872Z,1.50
2022-08-03T17:36:41.888Z,1.40
2022-08-03T17:39:17.154Z,1.70
2022-08-03T17:41:50.228Z,2.03
2022-08-03T17:44:33.082Z,2.00
2022-08-03T17:47:04.219Z,2.17
2022-08-03T17:49:33.147Z,1.65
2022-08-03T17:52:27.449Z,1.60
2022-08-03T17:55:57.602Z,1.80
2022-08-03T17:58:02.603Z,1.90
2022-08-03T18:00:59.715Z,1.90
2022-08-03T18:03:58.725Z,1.50
2022-08-03T18:06:30.631Z,1.60
2022-08-03T18:09:04.970Z,1.90
2022-08-03T18:11:46.614Z,2.03
2022-08-03T18:14:29.367Z,2.22
2022-08-03T18:17:00.505Z,2.22
2022-08-03T18:20:02.551Z,1.98
2022-08-03T18:22:14.361Z,1.70
2022-08-03T18:24:41.724Z,1.70
2022-08-03T18:27:10.680Z,1.60
2022-08-03T18:29:37.472Z,1.67
2022-08-03T18:32:21.880Z,1.67
2022-08-03T18:34:54.137Z,1.60
2022-08-03T18:37:25.156Z,2.50
2022-08-03T18:39:54.847Z,2.25
2022-08-03T18:42:25.735Z,1.85
2022-08-03T18:44:56.135Z,2.00
2022-08-03T18:47:23.054Z,2.05
2022-08-03T18:49:55.543Z,2.00
2022-08-03T18:52:27.739Z,2.55
2022-08-03T18:55:19.709Z,1.98
2022-08-03T18:57:46.795Z,2.37
2022-08-03T19:00:24.101Z,2.75
2022-08-03T19:03:05.959Z,2.10
2022-08-03T19:05:49.318Z,2.17
2022-08-03T19:08:27.046Z,1.90
2022-08-03T19:10:57.793Z,2.63
2022-08-03T19:13:31.024Z,2.45
2022-08-03T19:16:03.748Z,2.03
2022-08-03T19:18:32.897Z,1.92
2022-08-03T19:21:01.098Z,2.05
2022-08-03T19:23:33.911Z,2.00
2022-08-03T19:26:01.676Z,1.80
2022-08-03T19:28:30.141Z,2.28
2022-08-03T19:31:00.139Z,1.98
2022-08-03T19:33:31.381Z,2.40
2022-08-03T19:36:18.118Z,2.25
2022-08-03T19:38:54.131Z,2.75
2022-08-03T19:41:21.502Z,2.10
2022-08-03T19:43:53.766Z,2.30
2022-08-03T19:46:31.046Z,2.10
2022-08-03T19:50:06.145Z,2.30
2022-08-03T19:52:14.103Z,2.08
2022-08-03T19:54:53.736Z,2.40
2022-08-03T19:57:23.032Z,1.77
2022-08-03T19:59:50.844Z,2.38
2022-08-03T20:02:26.034Z,2.20
2022-08-03T20:04:54.616Z,2.43
2022-08-03T20:07:22.857Z,2.00
2022-08-03T20:09:56.161Z,2.30
2022-08-03T20:12:28.320Z,2.23
2022-08-03T20:15:18.317Z,2.43
2022-08-03T20:17:58.780Z,1.63
2022-08-03T20:20:28.335Z,2.33
2022-08-03T20:22:57.817Z,2.35
2022-08-03T20:25:37.612Z,2.17
2022-08-03T20:28:13.938Z,2.80
2022-08-03T20:30:42.611Z,2.03
2022-08-03T20:33:09.976Z,1.90
2022-08-03T20:35:36.482Z,1.87
2022-08-03T20:38:03.210Z,1.53
2022-08-03T20:40:29.745Z,1.70
2022-08-03T20:42:56.265Z,1.80
2022-08-03T20:46:00.915Z,1.90
2022-08-03T20:48:09.882Z,1.73
2022-08-03T20:50:38.087Z,2.00
2022-08-03T20:53:04.821Z,2.20
2022-08-03T20:55:47.800Z,2.27
2022-08-03T20:58:19.875Z,1.43
2022-08-03T21:00:51.439Z,1.43
2022-08-03T21:03:41.227Z,1.86
2022-08-03T21:06:15.135Z,1.60
2022-08-03T21:08:46.842Z,1.60
2022-08-03T21:11:17.371Z,1.80
2022-08-03T21:13:54.097Z,2.23
2022-08-03T21:16:26.916Z,2.30
2022-08-03T21:18:54.272Z,2.80
2022-08-03T21:21:22.280Z,3.23
2022-08-03T21:23:49.914Z,3.28
2022-08-03T21:26:20.471Z,3.57
2022-08-03T21:28:48.065Z,2.87
2022-08-03T21:31:22.303Z,3.50
2022-08-03T21:33:53.276Z,2.60
2022-08-03T21:36:19.809Z,2.60
2022-08-03T21:38:47.596Z,3.20
2022-08-03T21:41:23.246Z,3.70
2022-08-03T21:43:49.928Z,4.37
2022-08-03T21:46:18.486Z,4.67
2022-08-03T21:48:47.469Z,4.23
2022-08-03T21:51:16.568Z,4.17
2022-08-03T21:54:00.379Z,4.80
2022-08-03T21:56:31.892Z,4.97
2022-08-03T21:59:06.209Z,5.63
2022-08-03T22:01:35.601Z,5.17
2022-08-03T22:04:03.596Z,4.80
2022-08-03T22:06:30.105Z,5.00
2022-08-03T22:08:56.676Z,3.80
2022-08-03T22:11:23.417Z,3.77
2022-08-03T22:13:50.184Z,4.20
2022-08-03T22:16:16.820Z,2.90
2022-08-03T22:18:44.375Z,3.10
2022-08-03T22:21:11.842Z,3.53
2022-08-03T22:23:58.375Z,3.27
2022-08-03T22:26:34.714Z,3.37
2022-08-03T22:29:06.234Z,2.77
2022-08-03T22:31:58.328Z,2.90
2022-08-03T22:34:23.644Z,2.77
2022-08-03T22:36:54.788Z,2.50
2022-08-03T22:39:26.011Z,2.43
2022-08-03T22:41:52.719Z,2.33
2022-08-03T22:44:20.140Z,1.90
2022-08-03T22:46:46.653Z,2.13
2022-08-03T22:49:13.578Z,2.43
2022-08-03T22:51:40.678Z,1.63
2022-08-03T22:54:07.633Z,1.53
2022-08-03T22:56:34.158Z,1.77
2022-08-03T22:59:01.376Z,1.83
2022-08-03T23:01:49.481Z,1.80
2022-08-03T23:04:17.914Z,1.53
2022-08-03T23:06:46.705Z,1.50
2022-08-03T23:09:13.925Z,1.53
2022-08-03T23:11:45.497Z,1.43
2022-08-03T23:14:16.611Z,1.30
2022-08-03T23:16:43.894Z,1.73
2022-08-03T23:19:17.170Z,1.83
2022-08-03T23:22:03.001Z,1.37
2022-08-03T23:24:30.893Z,1.57
2022-08-03T23:26:57.807Z,1.50
2022-08-03T23:29:24.604Z,1.57
2022-08-03T23:31:52.630Z,1.20
2022-08-03T23:34:37.634Z,1.70
2022-08-03T23:37:05.466Z,1.70
2022-08-03T23:39:35.326Z,1.70
2022-08-03T23:42:03.035Z,1.70
2022-08-03T23:44:30.916Z,1.50
2022-08-03T23:46:57.435Z,1.40
2022-08-03T23:49:23.980Z,1.90
2022-08-03T23:51:56.335Z,2.03
2022-08-03T23:54:22.839Z,2.13
2022-08-03T23:56:55.148Z,2.03
2022-08-03T23:59:43.954Z,2.00
